sensor_id;sensor_type;location;lat;lon;timestamp;pressure;altitude;pressure_sealevel;temperature;humidity
23619;BME280;18207;32.078;34.818;2023-10-13T00:02:17;101175.22;;;32.38;40.94
23619;BME280;18207;32.078;34.818;2023-10-13T00:04:49;101170.75;;;32.37;40.97
23619;BME280;18207;32.078;34.818;2023-10-13T00:07:19;101176.06;;;32.35;40.67
23619;BME280;18207;32.078;34.818;2023-10-13T00:09:53;101177.28;;;32.34;40.90
23619;BME280;18207;32.078;34.818;2023-10-13T00:12:24;101169.97;;;32.33;40.82
23619;BME280;18207;32.078;34.818;2023-10-13T00:14:54;101170.75;;;32.33;40.65
23619;BME280;18207;32.078;34.818;2023-10-13T00:17:23;101171.19;;;32.32;41.02
23619;BME280;18207;32.078;34.818;2023-10-13T00:19:53;101178.88;;;32.31;40.42
23619;BME280;18207;32.078;34.818;2023-10-13T00:22:23;101182.56;;;32.32;40.99
23619;BME280;18207;32.078;34.818;2023-10-13T00:24:59;101175.22;;;32.31;40.67
23619;BME280;18207;32.078;34.818;2023-10-13T00:27:31;101179.72;;;32.28;40.83
23619;BME280;18207;32.078;34.818;2023-10-13T00:30:06;101185.41;;;32.28;40.46
23619;BME280;18207;32.078;34.818;2023-10-13T00:32:59;101195.53;;;32.26;40.38
23619;BME280;18207;32.078;34.818;2023-10-13T00:35:30;101191.09;;;32.25;40.96
23619;BME280;18207;32.078;34.818;2023-10-13T00:38:05;101195.16;;;32.24;41.06
23619;BME280;18207;32.078;34.818;2023-10-13T00:40:45;101179.31;;;32.23;40.38
23619;BME280;18207;32.078;34.818;2023-10-13T00:43:22;101179.69;;;32.22;40.80
23619;BME280;18207;32.078;34.818;2023-10-13T00:46:03;101187.84;;;32.20;40.28
23619;BME280;18207;32.078;34.818;2023-10-13T00:48:38;101191.06;;;32.18;40.60
23619;BME280;18207;32.078;34.818;2023-10-13T00:51:21;101189.06;;;32.15;41.08
23619;BME280;18207;32.078;34.818;2023-10-13T00:54:05;101192.69;;;32.12;40.38
23619;BME280;18207;32.078;34.818;2023-10-13T00:56:42;101190.25;;;32.11;40.93
23619;BME280;18207;32.078;34.818;2023-10-13T00:59:18;101195.91;;;32.07;40.38
23619;BME280;18207;32.078;34.818;2023-10-13T01:01:51;101187.75;;;32.06;40.45
23619;BME280;18207;32.078;34.818;2023-10-13T01:04:24;101191.03;;;32.04;40.53
23619;BME280;18207;32.078;34.818;2023-10-13T01:06:56;101192.25;;;32.03;40.47
23619;BME280;18207;32.078;34.818;2023-10-13T01:09:26;101193.88;;;32.01;40.96
23619;BME280;18207;32.078;34.818;2023-10-13T01:11:57;101187.75;;;31.99;40.53
23619;BME280;18207;32.078;34.818;2023-10-13T01:14:29;101187.75;;;31.95;40.61
23619;BME280;18207;32.078;34.818;2023-10-13T01:16:58;101190.19;;;31.93;40.70
23619;BME280;18207;32.078;34.818;2023-10-13T01:19:29;101181.66;;;31.90;40.47
23619;BME280;18207;32.078;34.818;2023-10-13T01:21:59;101187.72;;;31.88;40.96
23619;BME280;18207;32.078;34.818;2023-10-13T01:24:33;101188.53;;;31.85;40.55
23619;BME280;18207;32.078;34.818;2023-10-13T01:27:04;101190.13;;;31.83;41.07
23619;BME280;18207;32.078;34.818;2023-10-13T01:29:47;101189.75;;;31.81;40.98
23619;BME280;18207;32.078;34.818;2023-10-13T01:32:21;101184.44;;;31.79;41.17
23619;BME280;18207;32.078;34.818;2023-10-13T01:34:51;101186.06;;;31.77;41.08
23619;BME280;18207;32.078;34.818;2023-10-13T01:37:23;101197.84;;;31.75;40.93
23619;BME280;18207;32.078;34.818;2023-10-13T01:39:53;101189.72;;;31.74;41.16
23619;BME280;18207;32.078;34.818;2023-10-13T01:42:23;101191.75;;;31.73;41.11
23619;BME280;18207;32.078;34.818;2023-10-13T01:44:53;101195.81;;;31.72;40.67
23619;BME280;18207;32.078;34.818;2023-10-13T01:47:33;101197.44;;;31.70;41.36
23619;BME280;18207;32.078;34.818;2023-10-13T01:50:02;101199.03;;;31.67;41.15
23619;BME280;18207;32.078;34.818;2023-10-13T01:52:41;101202.28;;;31.66;41.25
23619;BME280;18207;32.078;34.818;2023-10-13T01:55:13;101202.69;;;31.64;41.27
23619;BME280;18207;32.078;34.818;2023-10-13T01:57:48;101196.56;;;31.62;41.32
23619;BME280;18207;32.078;34.818;2023-10-13T02:00:17;101202.25;;;31.62;41.34
23619;BME280;18207;32.078;34.818;2023-10-13T02:02:48;101204.31;;;31.62;41.13
23619;BME280;18207;32.078;34.818;2023-10-13T02:05:18;101205.09;;;31.62;41.43
23619;BME280;18207;32.078;34.818;2023-10-13T02:07:48;101207.53;;;31.64;40.79
23619;BME280;18207;32.078;34.818;2023-10-13T02:10:18;101201.84;;;31.64;41.41
23619;BME280;18207;32.078;34.818;2023-10-13T02:12:54;101204.69;;;31.64;41.43
23619;BME280;18207;32.078;34.818;2023-10-13T02:15:23;101202.25;;;31.62;40.93
23619;BME280;18207;32.078;34.818;2023-10-13T02:17:54;101200.22;;;31.63;41.20
23619;BME280;18207;32.078;34.818;2023-10-13T02:20:23;101205.91;;;31.63;41.07
23619;BME280;18207;32.078;34.818;2023-10-13T02:22:59;101205.09;;;31.62;41.51
23619;BME280;18207;32.078;34.818;2023-10-13T02:25:29;101199.41;;;31.62;40.99
23619;BME280;18207;32.078;34.818;2023-10-13T02:28:11;101190.09;;;31.62;41.24
23619;BME280;18207;32.078;34.818;2023-10-13T02:30:44;101201.84;;;31.64;41.19
23619;BME280;18207;32.078;34.818;2023-10-13T02:33:13;101203.47;;;31.65;41.38
23619;BME280;18207;32.078;34.818;2023-10-13T02:35:49;101199.44;;;31.66;41.09
23619;BME280;18207;32.078;34.818;2023-10-13T02:38:21;101193.34;;;31.67;41.64
23619;BME280;18207;32.078;34.818;2023-10-13T02:40:57;101206.34;;;31.68;41.27
23619;BME280;18207;32.078;34.818;2023-10-13T02:43:35;101202.28;;;31.69;41.39
23619;BME280;18207;32.078;34.818;2023-10-13T02:46:06;101197.00;;;31.68;41.78
23619;BME280;18207;32.078;34.818;2023-10-13T02:48:35;101203.91;;;31.67;41.61
23619;BME280;18207;32.078;34.818;2023-10-13T02:51:10;101206.31;;;31.65;41.45
23619;BME280;18207;32.078;34.818;2023-10-13T02:53:45;101202.69;;;31.64;41.25
23619;BME280;18207;32.078;34.818;2023-10-13T02:56:19;101201.47;;;31.65;41.68
23619;BME280;18207;32.078;34.818;2023-10-13T02:58:49;101207.53;;;31.64;41.22
23619;BME280;18207;32.078;34.818;2023-10-13T03:01:24;101213.22;;;31.64;41.83
23619;BME280;18207;32.078;34.818;2023-10-13T03:03:57;101200.22;;;31.63;41.39
23619;BME280;18207;32.078;34.818;2023-10-13T03:06:28;101214.44;;;31.63;41.85
23619;BME280;18207;32.078;34.818;2023-10-13T03:09:02;101212.84;;;31.62;41.47
23619;BME280;18207;32.078;34.818;2023-10-13T03:11:45;101222.94;;;31.59;41.33
23619;BME280;18207;32.078;34.818;2023-10-13T03:14:17;101217.25;;;31.59;41.30
23619;BME280;18207;32.078;34.818;2023-10-13T03:16:57;101228.63;;;31.59;41.85
23619;BME280;18207;32.078;34.818;2023-10-13T03:19:31;101219.31;;;31.59;41.45
23619;BME280;18207;32.078;34.818;2023-10-13T03:22:03;101225.78;;;31.59;41.40
23619;BME280;18207;32.078;34.818;2023-10-13T03:24:39;101228.63;;;31.59;41.79
23619;BME280;18207;32.078;34.818;2023-10-13T03:27:17;101232.69;;;31.58;41.66
23619;BME280;18207;32.078;34.818;2023-10-13T03:29:51;101226.63;;;31.56;42.06
23619;BME280;18207;32.078;34.818;2023-10-13T03:32:24;101232.28;;;31.56;41.78
23619;BME280;18207;32.078;34.818;2023-10-13T03:34:55;101238.34;;;31.55;42.10
23619;BME280;18207;32.078;34.818;2023-10-13T03:37:39;101246.06;;;31.54;41.82
23619;BME280;18207;32.078;34.818;2023-10-13T03:40:11;101243.59;;;31.53;41.79
23619;BME280;18207;32.078;34.818;2023-10-13T03:43:04;101241.16;;;31.51;41.46
23619;BME280;18207;32.078;34.818;2023-10-13T03:45:36;101244.41;;;31.50;41.73
23619;BME280;18207;32.078;34.818;2023-10-13T03:48:09;101249.66;;;31.48;41.56
23619;BME280;18207;32.078;34.818;2023-10-13T03:50:40;101249.25;;;31.46;41.60
23619;BME280;18207;32.078;34.818;2023-10-13T03:53:16;101251.66;;;31.44;42.02
23619;BME280;18207;32.078;34.818;2023-10-13T03:55:48;101255.72;;;31.43;41.67
23619;BME280;18207;32.078;34.818;2023-10-13T03:58:21;101265.88;;;31.44;42.14
23619;BME280;18207;32.078;34.818;2023-10-13T04:00:55;101261.41;;;31.43;41.71
23619;BME280;18207;32.078;34.818;2023-10-13T04:03:25;101257.75;;;31.42;41.60
23619;BME280;18207;32.078;34.818;2023-10-13T04:06:01;101259.78;;;31.42;42.20
23619;BME280;18207;32.078;34.818;2023-10-13T04:08:34;101270.34;;;31.41;41.72
23619;BME280;18207;32.078;34.818;2023-10-13T04:11:43;101272.75;;;31.39;41.57
23619;BME280;18207;32.078;34.818;2023-10-13T04:14:50;101270.75;;;31.40;41.82
23619;BME280;18207;32.078;34.818;2023-10-13T04:17:39;101267.06;;;31.39;41.78
23619;BME280;18207;32.078;34.818;2023-10-13T04:20:13;101261.38;;;31.39;42.10
23619;BME280;18207;32.078;34.818;2023-10-13T04:22:57;101265.84;;;31.40;41.70
23619;BME280;18207;32.078;34.818;2023-10-13T04:25:47;101259.38;;;31.40;41.88
23619;BME280;18207;32.078;34.818;2023-10-13T04:28:49;101264.63;;;31.38;42.23
23619;BME280;18207;32.078;34.818;2023-10-13T04:31:23;101268.28;;;31.38;41.59
23619;BME280;18207;32.078;34.818;2023-10-13T04:34:09;101273.97;;;31.38;42.19
23619;BME280;18207;32.078;34.818;2023-10-13T04:36:47;101274.78;;;31.39;42.20
23619;BME280;18207;32.078;34.818;2023-10-13T04:39:23;101287.78;;;31.40;42.42
23619;BME280;18207;32.078;34.818;2023-10-13T04:42:03;101287.78;;;31.40;42.34
23619;BME280;18207;32.078;34.818;2023-10-13T04:44:41;101286.56;;;31.37;42.25
23619;BME280;18207;32.078;34.818;2023-10-13T04:47:27;101288.56;;;31.37;41.98
23619;BME280;18207;32.078;34.818;2023-10-13T04:49:58;101291.41;;;31.37;41.82
23619;BME280;18207;32.078;34.818;2023-10-13T04:52:30;101289.41;;;31.37;42.54
23619;BME280;18207;32.078;34.818;2023-10-13T04:55:29;101292.25;;;31.37;41.94
23619;BME280;18207;32.078;34.818;2023-10-13T04:58:16;101298.31;;;31.39;42.53
23619;BME280;18207;32.078;34.818;2023-10-13T05:01:10;101307.28;;;31.41;42.54
23619;BME280;18207;32.078;34.818;2023-10-13T05:04:14;101307.28;;;31.45;42.45
23619;BME280;18207;32.078;34.818;2023-10-13T05:07:06;101305.28;;;31.49;42.57
23619;BME280;18207;32.078;34.818;2023-10-13T05:09:53;101309.38;;;31.51;42.20
23619;BME280;18207;32.078;34.818;2023-10-13T05:12:43;101321.63;;;31.55;42.69
23619;BME280;18207;32.078;34.818;2023-10-13T05:15:47;101321.22;;;31.60;42.20
23619;BME280;18207;32.078;34.818;2023-10-13T05:18:37;101316.38;;;31.64;42.34
23619;BME280;18207;32.078;34.818;2023-10-13T05:21:28;101325.72;;;31.68;42.58
23619;BME280;18207;32.078;34.818;2023-10-13T05:24:17;101322.09;;;31.71;42.79
23619;BME280;18207;32.078;34.818;2023-10-13T05:27:04;101320.09;;;31.75;42.32
23619;BME280;18207;32.078;34.818;2023-10-13T05:29:51;101330.28;;;31.80;42.32
23619;BME280;18207;32.078;34.818;2023-10-13T05:32:40;101327.03;;;31.85;42.46
23619;BME280;18207;32.078;34.818;2023-10-13T05:35:31;101339.69;;;31.91;42.48
23619;BME280;18207;32.078;34.818;2023-10-13T05:38:20;101340.13;;;31.96;42.80
23619;BME280;18207;32.078;34.818;2023-10-13T05:41:09;101338.50;;;32.02;42.76
23619;BME280;18207;32.078;34.818;2023-10-13T05:43:56;101342.63;;;32.08;42.44
23619;BME280;18207;32.078;34.818;2023-10-13T05:46:43;101344.28;;;32.16;43.08
23619;BME280;18207;32.078;34.818;2023-10-13T05:49:30;101342.69;;;32.22;43.05
23619;BME280;18207;32.078;34.818;2023-10-13T05:52:19;101345.56;;;32.29;42.59
23619;BME280;18207;32.078;34.818;2023-10-13T05:55:11;101339.50;;;32.37;42.88
23619;BME280;18207;32.078;34.818;2023-10-13T05:58:10;101351.31;;;32.43;43.12
23619;BME280;18207;32.078;34.818;2023-10-13T06:00:58;101353.38;;;32.49;42.52
23619;BME280;18207;32.078;34.818;2023-10-13T06:03:46;101347.69;;;32.56;42.98
23619;BME280;18207;32.078;34.818;2023-10-13T06:06:35;101356.25;;;32.63;42.98
23619;BME280;18207;32.078;34.818;2023-10-13T06:09:24;101353.03;;;32.68;42.68
23619;BME280;18207;32.078;34.818;2023-10-13T06:12:12;101355.47;;;32.77;42.94
23619;BME280;18207;32.078;34.818;2023-10-13T06:14:59;101353.44;;;32.81;43.07
23619;BME280;18207;32.078;34.818;2023-10-13T06:17:46;101363.63;;;32.89;42.41
23619;BME280;18207;32.078;34.818;2023-10-13T06:20:39;101353.44;;;32.95;42.85
23619;BME280;18207;32.078;34.818;2023-10-13T06:23:26;101354.28;;;32.99;43.05
23619;BME280;18207;32.078;34.818;2023-10-13T06:26:13;101356.75;;;33.04;42.97
23619;BME280;18207;32.078;34.818;2023-10-13T06:29:02;101349.44;;;33.10;43.01
23619;BME280;18207;32.078;34.818;2023-10-13T06:31:36;101351.47;;;33.16;42.65
23619;BME280;18207;32.078;34.818;2023-10-13T06:34:12;101355.53;;;33.22;42.30
23619;BME280;18207;32.078;34.818;2023-10-13T06:36:44;101344.53;;;33.27;42.69
23619;BME280;18207;32.078;34.818;2023-10-13T06:39:16;101345.78;;;33.33;42.45
23619;BME280;18207;32.078;34.818;2023-10-13T06:42:04;101346.97;;;33.39;42.28
23619;BME280;18207;32.078;34.818;2023-10-13T06:44:35;101341.69;;;33.45;42.73
23619;BME280;18207;32.078;34.818;2023-10-13T06:47:07;101348.19;;;33.52;42.64
23619;BME280;18207;32.078;34.818;2023-10-13T06:49:39;101344.91;;;33.57;42.73
23619;BME280;18207;32.078;34.818;2023-10-13T06:52:11;101340.06;;;33.61;42.45
23619;BME280;18207;32.078;34.818;2023-10-13T06:54:41;101344.53;;;33.66;42.56
23619;BME280;18207;32.078;34.818;2023-10-13T06:57:12;101342.47;;;33.70;41.95
23619;BME280;18207;32.078;34.818;2023-10-13T06:59:50;101338.38;;;33.74;42.54
23619;BME280;18207;32.078;34.818;2023-10-13T07:02:21;101336.75;;;33.77;42.64
23619;BME280;18207;32.078;34.818;2023-10-13T07:04:55;101336.31;;;33.82;41.95
23619;BME280;18207;32.078;34.818;2023-10-13T07:07:36;101343.66;;;33.86;42.45
23619;BME280;18207;32.078;34.818;2023-10-13T07:10:09;101337.53;;;33.91;41.91
23619;BME280;18207;32.078;34.818;2023-10-13T07:12:41;101334.66;;;33.95;42.07
23619;BME280;18207;32.078;34.818;2023-10-13T07:15:14;101336.28;;;33.99;41.80
23619;BME280;18207;32.078;34.818;2023-10-13T07:17:48;101344.03;;;34.02;41.85
23619;BME280;18207;32.078;34.818;2023-10-13T07:20:27;101329.72;;;34.05;42.38
23619;BME280;18207;32.078;34.818;2023-10-13T07:23:03;101336.25;;;34.09;41.81
23619;BME280;18207;32.078;34.818;2023-10-13T07:25:34;101329.28;;;34.14;41.57
23619;BME280;18207;32.078;34.818;2023-10-13T07:28:06;101330.09;;;34.18;41.56
23619;BME280;18207;32.078;34.818;2023-10-13T07:30:39;101332.13;;;34.21;41.87
23619;BME280;18207;32.078;34.818;2023-10-13T07:33:10;101320.69;;;34.24;41.62
23619;BME280;18207;32.078;34.818;2023-10-13T07:35:42;101321.09;;;34.26;41.80
23619;BME280;18207;32.078;34.818;2023-10-13T07:38:12;101319.47;;;34.29;41.51
23619;BME280;18207;32.078;34.818;2023-10-13T07:40:44;101321.88;;;34.30;41.23
23619;BME280;18207;32.078;34.818;2023-10-13T07:43:19;101323.09;;;34.33;41.46
23619;BME280;18207;32.078;34.818;2023-10-13T07:45:52;101315.75;;;34.35;41.98
23619;BME280;18207;32.078;34.818;2023-10-13T07:48:26;101308.81;;;34.36;41.20
23619;BME280;18207;32.078;34.818;2023-10-13T07:51:01;101308.38;;;34.38;41.56
23619;BME280;18207;32.078;34.818;2023-10-13T07:53:32;101303.47;;;34.38;41.57
23619;BME280;18207;32.078;34.818;2023-10-13T07:56:07;101317.34;;;34.40;41.34
23619;BME280;18207;32.078;34.818;2023-10-13T07:58:40;101312.84;;;34.42;41.79
23619;BME280;18207;32.078;34.818;2023-10-13T08:01:25;101307.09;;;34.46;41.85
23619;BME280;18207;32.078;34.818;2023-10-13T08:03:55;101308.31;;;34.48;41.81
23619;BME280;18207;32.078;34.818;2023-10-13T08:06:42;101314.81;;;34.52;41.21
23619;BME280;18207;32.078;34.818;2023-10-13T08:09:13;101297.69;;;34.52;41.35
23619;BME280;18207;32.078;34.818;2023-10-13T08:12:14;101300.13;;;34.54;41.25
23619;BME280;18207;32.078;34.818;2023-10-13T08:14:49;101296.88;;;34.55;41.03
23619;BME280;18207;32.078;34.818;2023-10-13T08:17:37;101294.81;;;34.56;41.50
23619;BME280;18207;32.078;34.818;2023-10-13T08:20:12;101287.47;;;34.58;41.39
23619;BME280;18207;32.078;34.818;2023-10-13T08:22:44;101275.22;;;34.61;41.50
23619;BME280;18207;32.078;34.818;2023-10-13T08:25:15;101282.53;;;34.66;41.30
23619;BME280;18207;32.078;34.818;2023-10-13T08:28:03;101278.84;;;34.69;41.41
23619;BME280;18207;32.078;34.818;2023-10-13T08:30:49;101269.84;;;34.70;41.29
23619;BME280;18207;32.078;34.818;2023-10-13T08:33:24;101269.00;;;34.73;41.22
23619;BME280;18207;32.078;34.818;2023-10-13T08:35:58;101264.94;;;34.74;40.62
23619;BME280;18207;32.078;34.818;2023-10-13T08:38:56;101266.56;;;34.75;40.59
23619;BME280;18207;32.078;34.818;2023-10-13T08:41:25;101271.41;;;34.78;40.62
23619;BME280;18207;32.078;34.818;2023-10-13T08:44:09;101269.34;;;34.82;40.93
23619;BME280;18207;32.078;34.818;2023-10-13T08:47:13;101262.00;;;34.81;40.72
23619;BME280;18207;32.078;34.818;2023-10-13T08:49:48;101262.41;;;34.83;40.41
23619;BME280;18207;32.078;34.818;2023-10-13T08:52:34;101272.59;;;34.84;41.08
23619;BME280;18207;32.078;34.818;2023-10-13T08:55:18;101269.31;;;34.86;40.60
23619;BME280;18207;32.078;34.818;2023-10-13T08:58:16;101272.16;;;34.86;40.47
23619;BME280;18207;32.078;34.818;2023-10-13T09:00:55;101270.50;;;34.88;41.07
23619;BME280;18207;32.078;34.818;2023-10-13T09:03:41;101270.91;;;34.90;40.85
23619;BME280;18207;32.078;34.818;2023-10-13T09:06:13;101274.94;;;34.92;40.41
23619;BME280;18207;32.078;34.818;2023-10-13T09:08:50;101289.63;;;34.94;40.42
23619;BME280;18207;32.078;34.818;2023-10-13T09:11:35;101287.59;;;34.95;41.02
23619;BME280;18207;32.078;34.818;2023-10-13T09:14:17;101282.69;;;34.95;40.30
23619;BME280;18207;32.078;34.818;2023-10-13T09:17:05;101267.19;;;34.96;40.29
23619;BME280;18207;32.078;34.818;2023-10-13T09:19:48;101262.25;;;34.97;40.32
23619;BME280;18207;32.078;34.818;2023-10-13T09:22:24;101263.09;;;34.97;40.92
23619;BME280;18207;32.078;34.818;2023-10-13T09:24:57;101260.63;;;34.96;40.43
23619;BME280;18207;32.078;34.818;2023-10-13T09:27:31;101253.31;;;34.95;40.93
23619;BME280;18207;32.078;34.818;2023-10-13T09:30:04;101254.13;;;34.95;40.95
23619;BME280;18207;32.078;34.818;2023-10-13T09:32:39;101250.03;;;34.96;40.25
23619;BME280;18207;32.078;34.818;2023-10-13T09:35:24;101243.47;;;34.96;40.97
23619;BME280;18207;32.078;34.818;2023-10-13T09:37:58;101239.03;;;34.95;40.88
23619;BME280;18207;32.078;34.818;2023-10-13T09:40:30;101237.75;;;34.96;40.39
23619;BME280;18207;32.078;34.818;2023-10-13T09:43:03;101227.16;;;34.96;40.94
23619;BME280;18207;32.078;34.818;2023-10-13T09:45:36;101228.78;;;34.97;40.96
23619;BME280;18207;32.078;34.818;2023-10-13T09:48:11;101219.38;;;34.97;40.50
23619;BME280;18207;32.078;34.818;2023-10-13T09:50:49;101211.66;;;34.97;40.87
23619;BME280;18207;32.078;34.818;2023-10-13T09:53:19;101210.81;;;34.97;40.29
23619;BME280;18207;32.078;34.818;2023-10-13T09:56:06;101216.53;;;34.97;40.40
23619;BME280;18207;32.078;34.818;2023-10-13T09:58:51;101202.69;;;34.95;40.17
23619;BME280;18207;32.078;34.818;2023-10-13T10:01:40;101194.09;;;34.95;40.51
23619;BME280;18207;32.078;34.818;2023-10-13T10:04:26;101200.66;;;34.92;40.79
23619;BME280;18207;32.078;34.818;2023-10-13T10:07:24;101195.78;;;34.93;40.56
23619;BME280;18207;32.078;34.818;2023-10-13T10:09:58;101190.88;;;34.90;40.22
23619;BME280;18207;32.078;34.818;2023-10-13T10:12:41;101191.28;;;34.92;40.90
23619;BME280;18207;32.078;34.818;2023-10-13T10:15:27;101183.94;;;34.91;40.82
23619;BME280;18207;32.078;34.818;2023-10-13T10:18:03;101186.41;;;34.89;40.42
23619;BME280;18207;32.078;34.818;2023-10-13T10:20:38;101188.47;;;34.89;39.97
23619;BME280;18207;32.078;34.818;2023-10-13T10:23:25;101180.31;;;34.87;40.27
23619;BME280;18207;32.078;34.818;2023-10-13T10:25:56;101179.94;;;34.85;39.95
23619;BME280;18207;32.078;34.818;2023-10-13T10:28:37;101177.06;;;34.85;40.26
23619;BME280;18207;32.078;34.818;2023-10-13T10:31:07;101169.75;;;34.84;40.17
23619;BME280;18207;32.078;34.818;2023-10-13T10:33:46;101180.34;;;34.84;40.36
23619;BME280;18207;32.078;34.818;2023-10-13T10:36:29;101175.44;;;34.84;40.39
23619;BME280;18207;32.078;34.818;2023-10-13T10:39:01;101172.19;;;34.82;40.43
23619;BME280;18207;32.078;34.818;2023-10-13T10:41:32;101168.94;;;34.80;39.99
23619;BME280;18207;32.078;34.818;2023-10-13T10:44:13;101177.53;;;34.80;40.31
23619;BME280;18207;32.078;34.818;2023-10-13T10:46:51;101177.13;;;34.78;39.93
23619;BME280;18207;32.078;34.818;2023-10-13T10:49:27;101176.31;;;34.78;40.38
23619;BME280;18207;32.078;34.818;2023-10-13T10:52:01;101166.13;;;34.77;39.98
23619;BME280;18207;32.078;34.818;2023-10-13T10:54:32;101162.88;;;34.75;40.44
23619;BME280;18207;32.078;34.818;2023-10-13T10:57:02;101160.03;;;34.75;39.99
23619;BME280;18207;32.078;34.818;2023-10-13T10:59:40;101165.34;;;34.73;40.53
23619;BME280;18207;32.078;34.818;2023-10-13T11:02:11;101150.66;;;34.71;39.74
23619;BME280;18207;32.078;34.818;2023-10-13T11:04:43;101151.53;;;34.68;39.81
23619;BME280;18207;32.078;34.818;2023-10-13T11:07:26;101147.03;;;34.67;40.12
23619;BME280;18207;32.078;34.818;2023-10-13T11:10:07;101149.50;;;34.65;40.15
23619;BME280;18207;32.078;34.818;2023-10-13T11:12:55;101139.75;;;34.62;39.93
23619;BME280;18207;32.078;34.818;2023-10-13T11:15:43;101135.69;;;34.60;39.92
23619;BME280;18207;32.078;34.818;2023-10-13T11:18:15;101137.34;;;34.57;39.84
23619;BME280;18207;32.078;34.818;2023-10-13T11:20:55;101140.59;;;34.56;39.92
23619;BME280;18207;32.078;34.818;2023-10-13T11:23:26;101136.09;;;34.55;40.65
23619;BME280;18207;32.078;34.818;2023-10-13T11:26:00;101132.44;;;34.54;40.45
23619;BME280;18207;32.078;34.818;2023-10-13T11:28:49;101130.81;;;34.53;40.66
23619;BME280;18207;32.078;34.818;2023-10-13T11:31:24;101127.56;;;34.51;40.16
23619;BME280;18207;32.078;34.818;2023-10-13T11:33:59;101136.16;;;34.51;40.47
23619;BME280;18207;32.078;34.818;2023-10-13T11:36:34;101133.72;;;34.50;39.86
23619;BME280;18207;32.078;34.818;2023-10-13T11:39:08;101130.88;;;34.50;40.33
23619;BME280;18207;32.078;34.818;2023-10-13T11:41:40;101136.19;;;34.48;40.50
23619;BME280;18207;32.078;34.818;2023-10-13T11:44:19;101128.84;;;34.47;39.93
23619;BME280;18207;32.078;34.818;2023-10-13T11:46:59;101128.44;;;34.45;39.86
23619;BME280;18207;32.078;34.818;2023-10-13T11:50:01;101128.47;;;34.41;40.42
23619;BME280;18207;32.078;34.818;2023-10-13T11:52:34;101133.41;;;34.41;39.91
23619;BME280;18207;32.078;34.818;2023-10-13T11:55:06;101127.69;;;34.41;40.33
23619;BME280;18207;32.078;34.818;2023-10-13T11:57:36;101133.00;;;34.39;39.71
23619;BME280;18207;32.078;34.818;2023-10-13T12:00:16;101129.31;;;34.38;39.69
23619;BME280;18207;32.078;34.818;2023-10-13T12:03:14;101136.28;;;34.34;39.79
23619;BME280;18207;32.078;34.818;2023-10-13T12:06:35;101125.69;;;34.34;39.85
23619;BME280;18207;32.078;34.818;2023-10-13T12:09:14;101128.16;;;34.32;39.67
23619;BME280;18207;32.078;34.818;2023-10-13T12:12:09;101133.03;;;34.32;39.72
23619;BME280;18207;32.078;34.818;2023-10-13T12:14:39;101133.88;;;34.32;39.88
23619;BME280;18207;32.078;34.818;2023-10-13T12:17:25;101123.69;;;34.31;39.61
23619;BME280;18207;32.078;34.818;2023-10-13T12:20:04;101130.63;;;34.30;40.13
23619;BME280;18207;32.078;34.818;2023-10-13T12:22:38;101124.91;;;34.30;39.57
23619;BME280;18207;32.078;34.818;2023-10-13T12:25:10;101129.00;;;34.29;40.06
23619;BME280;18207;32.078;34.818;2023-10-13T12:27:55;101128.59;;;34.27;39.75
23619;BME280;18207;32.078;34.818;2023-10-13T12:30:35;101126.16;;;34.26;39.69
23619;BME280;18207;32.078;34.818;2023-10-13T12:33:30;101127.41;;;34.25;40.00
23619;BME280;18207;32.078;34.818;2023-10-13T12:36:15;101127.00;;;34.23;40.15
23619;BME280;18207;32.078;34.818;2023-10-13T12:39:01;101129.84;;;34.23;40.15
23619;BME280;18207;32.078;34.818;2023-10-13T12:41:50;101131.09;;;34.22;39.75
23619;BME280;18207;32.078;34.818;2023-10-13T12:45:04;101122.94;;;34.20;40.20
23619;BME280;18207;32.078;34.818;2023-10-13T12:48:06;101123.38;;;34.19;39.80
23619;BME280;18207;32.078;34.818;2023-10-13T12:51:01;101127.88;;;34.20;40.10
23619;BME280;18207;32.078;34.818;2023-10-13T12:53:52;101124.19;;;34.19;39.86
23619;BME280;18207;32.078;34.818;2023-10-13T12:56:28;101117.25;;;34.20;40.13
23619;BME280;18207;32.078;34.818;2023-10-13T12:59:00;101127.88;;;34.20;40.45
23619;BME280;18207;32.078;34.818;2023-10-13T13:01:41;101122.94;;;34.20;40.02
23619;BME280;18207;32.078;34.818;2023-10-13T13:04:13;101125.00;;;34.20;40.46
23619;BME280;18207;32.078;34.818;2023-10-13T13:06:51;101133.13;;;34.21;40.08
23619;BME280;18207;32.078;34.818;2023-10-13T13:09:23;101128.22;;;34.22;40.60
23619;BME280;18207;32.078;34.818;2023-10-13T13:11:57;101133.94;;;34.22;40.11
23619;BME280;18207;32.078;34.818;2023-10-13T13:14:28;101132.34;;;34.21;40.05
23619;BME280;18207;32.078;34.818;2023-10-13T13:17:02;101136.00;;;34.21;40.60
23619;BME280;18207;32.078;34.818;2023-10-13T13:19:38;101131.50;;;34.20;40.25
23619;BME280;18207;32.078;34.818;2023-10-13T13:22:15;101140.06;;;34.20;40.84
23619;BME280;18207;32.078;34.818;2023-10-13T13:24:46;101145.00;;;34.20;40.28
23619;BME280;18207;32.078;34.818;2023-10-13T13:27:17;101135.19;;;34.17;40.92
23619;BME280;18207;32.078;34.818;2023-10-13T13:29:48;101145.00;;;34.16;40.38
23619;BME280;18207;32.078;34.818;2023-10-13T13:32:23;101143.38;;;34.15;40.28
23619;BME280;18207;32.078;34.818;2023-10-13T13:34:58;101139.72;;;34.15;41.02
23619;BME280;18207;32.078;34.818;2023-10-13T13:37:33;101148.69;;;34.13;40.51
23619;BME280;18207;32.078;34.818;2023-10-13T13:40:11;101146.66;;;34.14;40.95